Benton, California
Current Conditions -  °F | °C
As of 4:35 AM on Monday 26 Jan 2015 (Local Time) from KMMH Reporting Station
Clear Clear  
Wind Chill: 27°   Ceiling: Unl
Heat Index: 27°   Visibility: 10mi
Dew Point: 18°   Wind: 3mph
Humidity: 69%   Direction: 360°N
Pressure: 30.31"   Gusts: NA
Location:  37.82°N, 118.48°W
Report Text: KMMH 261235Z AUTO 36003KT 10SM CLR M03/M08 A3031 RMK AO1
Loading
Personal Weather Stations






























Interactive Weather Map New forecast layout! Learn more

10-Day Weather Forecast

Advertisements
Track Severe Weather on mobile